createdAt,value
2023-01-21T00:00:10.546Z,0.00
2023-01-21T00:02:37.413Z,0.00
2023-01-21T00:05:04.520Z,0.00
2023-01-21T00:07:31.337Z,0.00
2023-01-21T00:09:57.988Z,0.00
2023-01-21T00:12:24.801Z,0.00
2023-01-21T00:14:51.517Z,0.00
2023-01-21T00:17:18.284Z,0.00
2023-01-21T00:19:44.957Z,0.00
2023-01-21T00:22:12.306Z,0.10
2023-01-21T00:24:39.026Z,0.00
2023-01-21T00:27:05.912Z,0.45
2023-01-21T00:29:32.619Z,0.08
2023-01-21T00:31:59.407Z,0.70
2023-01-21T00:34:26.088Z,0.00
2023-01-21T00:36:54.020Z,0.20
2023-01-21T00:39:22.404Z,0.00
2023-01-21T00:41:49.136Z,0.10
2023-01-21T00:44:16.439Z,0.00
2023-01-21T00:46:43.231Z,0.32
2023-01-21T00:49:09.875Z,0.00
2023-01-21T00:51:36.623Z,1.45
2023-01-21T00:54:03.359Z,0.00
2023-01-21T00:56:30.135Z,0.95
2023-01-21T00:58:57.068Z,0.10
2023-01-21T01:01:23.970Z,0.08
2023-01-21T01:03:50.738Z,0.10
2023-01-21T01:06:20.366Z,0.40
2023-01-21T01:08:48.121Z,0.68
2023-01-21T01:11:14.976Z,0.40
2023-01-21T01:13:41.844Z,0.10
2023-01-21T01:16:09.469Z,0.10
2023-01-21T01:18:37.032Z,0.10
2023-01-21T01:21:04.878Z,0.00
2023-01-21T01:23:32.658Z,0.05
2023-01-21T01:26:02.139Z,0.00
2023-01-21T01:28:29.750Z,0.00
2023-01-21T01:30:57.356Z,0.65
2023-01-21T01:33:24.907Z,0.10
2023-01-21T01:35:51.783Z,0.00
2023-01-21T01:38:22.323Z,0.10
2023-01-21T01:40:50.697Z,0.05
2023-01-21T01:43:47.808Z,0.00
2023-01-21T01:46:14.757Z,0.03
2023-01-21T01:48:43.005Z,0.00
2023-01-21T01:51:09.886Z,0.10
2023-01-21T01:53:40.473Z,0.98
2023-01-21T01:56:07.528Z,0.30
2023-01-21T01:58:34.412Z,0.80
2023-01-21T02:01:01.160Z,0.88
2023-01-21T02:03:44.849Z,0.50
2023-01-21T02:06:13.284Z,0.30
2023-01-21T02:08:40.540Z,1.10
2023-01-21T02:11:14.978Z,0.00
2023-01-21T02:13:45.112Z,0.00
2023-01-21T02:16:27.153Z,0.25
2023-01-21T02:19:25.889Z,0.00
2023-01-21T02:22:20.682Z,0.13
2023-01-21T02:24:59.175Z,0.00
2023-01-21T02:27:39.655Z,0.20
2023-01-21T02:30:36.375Z,0.00
2023-01-21T02:33:27.760Z,1.05
2023-01-21T02:36:16.401Z,0.08
2023-01-21T02:38:47.066Z,0.08
2023-01-21T02:41:22.475Z,0.30
2023-01-21T02:44:01.477Z,0.00
2023-01-21T02:46:42.879Z,0.00
2023-01-21T02:49:21.667Z,0.20
2023-01-21T02:51:49.319Z,1.75
2023-01-21T02:54:38.881Z,0.20
2023-01-21T02:57:07.746Z,0.50
2023-01-21T02:59:35.443Z,0.30
2023-01-21T03:02:26.999Z,0.00
2023-01-21T03:05:15.330Z,0.00
2023-01-21T03:07:49.080Z,0.38
2023-01-21T03:10:40.667Z,0.25
2023-01-21T03:13:45.649Z,0.00
2023-01-21T03:16:32.459Z,0.10
2023-01-21T03:19:04.507Z,0.95
2023-01-21T03:21:33.279Z,0.10
2023-01-21T03:24:00.188Z,0.52
2023-01-21T03:26:31.366Z,0.03
2023-01-21T03:29:00.054Z,0.00
2023-01-21T03:31:32.025Z,0.00
2023-01-21T03:34:01.255Z,0.22
2023-01-21T03:36:46.872Z,0.20
2023-01-21T03:39:18.431Z,0.10
2023-01-21T03:41:45.279Z,1.25
2023-01-21T03:44:11.956Z,0.47
2023-01-21T03:47:02.278Z,0.20
2023-01-21T03:49:36.128Z,0.00
2023-01-21T03:52:04.232Z,0.90
2023-01-21T03:54:30.999Z,0.00
2023-01-21T03:56:57.757Z,0.00
2023-01-21T03:59:24.488Z,0.10
2023-01-21T04:01:51.216Z,0.00
2023-01-21T04:04:17.910Z,0.20
2023-01-21T04:06:44.641Z,0.00
2023-01-21T04:09:11.448Z,0.00
2023-01-21T04:11:38.263Z,0.00
2023-01-21T04:14:04.991Z,0.00
2023-01-21T04:16:31.836Z,0.00
2023-01-21T04:18:58.592Z,0.00
2023-01-21T04:21:25.599Z,0.00
2023-01-21T04:23:52.290Z,0.10
2023-01-21T04:26:19.038Z,0.00
2023-01-21T04:28:46.362Z,0.00
2023-01-21T04:31:13.493Z,0.75
2023-01-21T04:33:40.279Z,0.00
2023-01-21T04:36:07.143Z,0.10
2023-01-21T04:38:33.800Z,0.10
2023-01-21T04:41:00.575Z,0.00
2023-01-21T04:43:27.350Z,0.50
2023-01-21T04:45:54.197Z,0.10
2023-01-21T04:48:20.987Z,0.35
2023-01-21T04:50:47.912Z,0.00
2023-01-21T04:53:14.624Z,0.55
2023-01-21T04:55:41.418Z,0.15
2023-01-21T04:58:08.199Z,0.00
2023-01-21T05:00:34.977Z,0.00
2023-01-21T05:03:01.819Z,0.35
2023-01-21T05:05:28.570Z,0.10
2023-01-21T05:07:55.385Z,0.00
2023-01-21T05:10:22.296Z,0.17
2023-01-21T05:12:49.124Z,0.50
2023-01-21T05:15:15.962Z,0.00
2023-01-21T05:17:42.853Z,0.10
2023-01-21T05:20:12.121Z,0.05
2023-01-21T05:22:39.285Z,0.00
2023-01-21T05:25:06.541Z,0.00
2023-01-21T05:27:33.758Z,0.00
2023-01-21T05:30:00.411Z,0.65
2023-01-21T05:32:27.167Z,0.00
2023-01-21T05:34:53.880Z,0.00
2023-01-21T05:37:20.608Z,0.00
2023-01-21T05:39:47.355Z,0.00
2023-01-21T05:42:14.132Z,1.35
2023-01-21T05:44:40.820Z,0.00
2023-01-21T05:47:09.003Z,0.00
2023-01-21T05:49:36.013Z,0.00
2023-01-21T05:52:02.732Z,0.00
2023-01-21T05:54:29.435Z,0.10
2023-01-21T05:56:56.223Z,0.17
2023-01-21T05:59:23.010Z,0.00
2023-01-21T06:01:49.757Z,0.00
2023-01-21T06:04:16.477Z,0.32
2023-01-21T06:06:43.277Z,0.00
2023-01-21T06:09:09.968Z,0.00
2023-01-21T06:11:36.746Z,0.00
2023-01-21T06:14:08.840Z,0.00
2023-01-21T06:16:36.800Z,0.00
2023-01-21T06:19:03.492Z,0.05
2023-01-21T06:21:30.316Z,0.00
2023-01-21T06:23:57.555Z,0.00
2023-01-21T06:26:26.884Z,0.00
2023-01-21T06:28:56.447Z,0.00
2023-01-21T06:31:24.058Z,0.00
2023-01-21T06:33:50.804Z,0.10
2023-01-21T06:36:17.545Z,0.00
2023-01-21T06:38:44.347Z,0.00
2023-01-21T06:41:11.061Z,0.00
2023-01-21T06:43:37.909Z,0.00
2023-01-21T06:46:04.730Z,0.63
2023-01-21T06:48:31.634Z,0.05
2023-01-21T06:51:00.753Z,0.82
2023-01-21T06:53:27.672Z,0.00
2023-01-21T06:55:54.532Z,0.00
2023-01-21T06:58:21.309Z,0.63
2023-01-21T07:00:48.039Z,0.00
2023-01-21T07:03:14.861Z,0.10
2023-01-21T07:05:45.095Z,0.00
2023-01-21T07:08:12.921Z,0.00
2023-01-21T07:10:39.616Z,0.25
2023-01-21T07:13:06.396Z,0.00
2023-01-21T07:15:33.217Z,0.00
2023-01-21T07:18:00.340Z,2.50
2023-01-21T07:20:27.106Z,2.20
2023-01-21T07:22:53.941Z,3.10
2023-01-21T07:25:20.720Z,3.63
2023-01-21T07:27:48.127Z,3.35
2023-01-21T07:30:19.500Z,4.10
2023-01-21T07:32:46.806Z,3.03
2023-01-21T07:35:13.759Z,3.30
2023-01-21T07:37:40.535Z,3.67
2023-01-21T07:40:07.906Z,3.08
2023-01-21T07:42:34.682Z,3.10
2023-01-21T07:45:03.888Z,3.28
2023-01-21T07:47:30.916Z,3.58
2023-01-21T07:49:57.621Z,4.40
2023-01-21T07:52:24.470Z,3.28
2023-01-21T07:54:51.162Z,3.47
2023-01-21T07:57:17.943Z,4.50
2023-01-21T07:59:44.634Z,5.10
2023-01-21T08:02:12.712Z,4.00
2023-01-21T08:04:39.771Z,3.03
2023-01-21T08:07:12.941Z,2.70
2023-01-21T08:09:40.392Z,3.40
2023-01-21T08:12:08.453Z,2.67
2023-01-21T08:14:35.430Z,2.28
2023-01-21T08:17:02.400Z,3.13
2023-01-21T08:19:29.255Z,2.60
2023-01-21T08:21:55.956Z,5.53
2023-01-21T08:24:22.811Z,3.75
2023-01-21T08:26:49.492Z,3.78
2023-01-21T08:29:16.436Z,3.35
2023-01-21T08:31:43.204Z,3.42
2023-01-21T08:34:10.297Z,3.50
2023-01-21T08:36:39.032Z,4.20
2023-01-21T08:39:06.398Z,4.68
2023-01-21T08:41:33.569Z,5.20
2023-01-21T08:44:00.460Z,4.45
2023-01-21T08:46:27.170Z,3.60
2023-01-21T08:48:54.001Z,3.78
2023-01-21T08:51:20.733Z,5.53
2023-01-21T08:53:49.441Z,3.58
2023-01-21T08:56:16.479Z,6.30
2023-01-21T08:58:43.577Z,5.78
2023-01-21T09:01:12.801Z,4.80
2023-01-21T09:03:40.088Z,2.92
2023-01-21T09:06:07.531Z,7.25
2023-01-21T09:08:36.440Z,3.55
2023-01-21T09:11:04.466Z,3.60
2023-01-21T09:13:38.550Z,3.83
2023-01-21T09:16:22.246Z,4.05
2023-01-21T09:18:49.343Z,3.30
2023-01-21T09:21:16.369Z,2.28
2023-01-21T09:23:43.164Z,2.25
2023-01-21T09:26:23.477Z,5.00
2023-01-21T09:28:55.516Z,3.45
2023-01-21T09:31:26.336Z,4.85
2023-01-21T09:34:01.557Z,3.30
2023-01-21T09:36:30.833Z,3.78
2023-01-21T09:38:57.927Z,2.65
2023-01-21T09:41:36.400Z,3.10
2023-01-21T09:44:12.602Z,3.65
2023-01-21T09:46:42.900Z,3.80
2023-01-21T09:49:14.821Z,4.68
2023-01-21T09:51:46.691Z,4.30
2023-01-21T09:54:33.962Z,4.30
2023-01-21T09:57:17.156Z,4.22
2023-01-21T10:00:22.471Z,3.78
2023-01-21T10:02:59.084Z,3.75
2023-01-21T10:05:48.647Z,3.65
2023-01-21T10:08:31.453Z,3.50
2023-01-21T10:11:26.329Z,4.00
2023-01-21T10:14:27.175Z,4.10
2023-01-21T10:17:04.502Z,4.72
2023-01-21T10:19:41.941Z,4.47
2023-01-21T10:22:14.673Z,4.72
2023-01-21T10:25:00.810Z,4.70
2023-01-21T10:27:29.210Z,6.10
2023-01-21T10:30:00.820Z,5.20
2023-01-21T10:32:28.175Z,5.35
2023-01-21T10:34:56.206Z,4.82
2023-01-21T10:37:43.021Z,4.60
2023-01-21T10:40:59.239Z,5.32
2023-01-21T10:43:32.115Z,4.88
2023-01-21T10:46:20.040Z,4.82
2023-01-21T10:48:52.512Z,4.97
2023-01-21T10:51:25.240Z,4.72
2023-01-21T10:53:56.473Z,5.00
2023-01-21T10:56:35.615Z,4.25
2023-01-21T10:59:27.274Z,4.22
2023-01-21T11:02:05.008Z,3.92
2023-01-21T11:04:31.884Z,3.90
2023-01-21T11:07:03.741Z,3.50
2023-01-21T11:09:33.231Z,3.72
2023-01-21T11:12:01.008Z,3.88
2023-01-21T11:14:28.149Z,2.88
2023-01-21T11:16:55.869Z,3.70
2023-01-21T11:19:24.979Z,3.58
2023-01-21T11:22:13.021Z,3.63
2023-01-21T11:24:47.951Z,3.70
2023-01-21T11:27:21.486Z,3.75
2023-01-21T11:29:50.097Z,3.47
2023-01-21T11:32:22.164Z,3.85
2023-01-21T11:34:51.048Z,3.67
2023-01-21T11:37:26.548Z,3.45
2023-01-21T11:39:59.285Z,4.13
2023-01-21T11:42:26.417Z,3.70
2023-01-21T11:44:59.121Z,4.88
2023-01-21T11:47:41.421Z,4.20
2023-01-21T11:50:13.935Z,3.30
2023-01-21T11:52:40.722Z,3.72
2023-01-21T11:55:45.536Z,4.38
2023-01-21T11:58:33.076Z,5.00
2023-01-21T12:01:01.564Z,3.42
2023-01-21T12:03:42.591Z,4.18
2023-01-21T12:06:10.035Z,4.18
2023-01-21T12:08:37.921Z,4.07
2023-01-21T12:11:06.532Z,4.40
2023-01-21T12:13:45.214Z,4.60
2023-01-21T12:16:31.294Z,4.75
2023-01-21T12:19:17.841Z,4.88
2023-01-21T12:22:02.706Z,5.13
2023-01-21T12:24:47.699Z,5.20
2023-01-21T12:27:35.862Z,4.75
2023-01-21T12:30:06.478Z,4.70
2023-01-21T12:32:49.180Z,5.10
2023-01-21T12:35:43.689Z,5.88
2023-01-21T12:38:26.574Z,7.22
2023-01-21T12:41:22.768Z,5.65
2023-01-21T12:44:21.394Z,6.70
2023-01-21T12:46:49.949Z,6.05
2023-01-21T12:49:21.344Z,5.40
2023-01-21T12:52:00.632Z,6.15
2023-01-21T12:54:47.394Z,4.68
2023-01-21T12:57:34.776Z,5.13
2023-01-21T13:00:10.415Z,5.47
2023-01-21T13:02:46.344Z,5.00
2023-01-21T13:05:21.660Z,6.18
2023-01-21T13:08:09.815Z,5.18
2023-01-21T13:10:45.959Z,5.00
2023-01-21T13:13:18.895Z,5.35
2023-01-21T13:15:52.693Z,5.30
2023-01-21T13:18:32.945Z,5.32
2023-01-21T13:21:06.753Z,4.80
2023-01-21T13:23:51.513Z,4.85
2023-01-21T13:26:29.290Z,5.72
2023-01-21T13:29:16.324Z,5.50
2023-01-21T13:32:08.916Z,4.60
2023-01-21T13:34:43.157Z,4.65
2023-01-21T13:37:22.513Z,5.60
2023-01-21T13:40:41.860Z,5.15
2023-01-21T13:43:11.804Z,3.42
2023-01-21T13:45:58.196Z,5.30
2023-01-21T13:48:43.207Z,4.25
2023-01-21T13:51:34.923Z,4.75
2023-01-21T13:54:32.188Z,5.68
2023-01-21T13:57:17.935Z,5.78
2023-01-21T13:59:49.825Z,4.45
2023-01-21T14:02:34.003Z,5.25
2023-01-21T14:05:09.578Z,4.35
2023-01-21T14:07:45.823Z,3.30
2023-01-21T14:10:31.751Z,4.57
2023-01-21T14:13:16.810Z,4.40
2023-01-21T14:15:55.125Z,4.25
2023-01-21T14:18:50.505Z,4.97
2023-01-21T14:21:28.665Z,4.13
2023-01-21T14:24:20.805Z,3.45
2023-01-21T14:27:14.898Z,4.93
2023-01-21T14:29:46.758Z,5.00
2023-01-21T14:32:20.990Z,4.60
2023-01-21T14:35:13.977Z,5.05
2023-01-21T14:37:46.726Z,4.75
2023-01-21T14:40:20.178Z,5.57
2023-01-21T14:42:51.200Z,5.68
2023-01-21T14:45:22.287Z,5.40
2023-01-21T14:47:53.874Z,6.40
2023-01-21T14:51:02.895Z,4.47
2023-01-21T14:53:29.665Z,4.80
2023-01-21T14:56:16.735Z,4.63
2023-01-21T14:58:52.260Z,3.78
2023-01-21T15:01:43.953Z,3.88
2023-01-21T15:04:28.821Z,3.90
2023-01-21T15:07:01.876Z,6.28
2023-01-21T15:09:31.466Z,5.75
2023-01-21T15:12:03.482Z,7.10
2023-01-21T15:14:35.143Z,5.50
2023-01-21T15:17:02.140Z,6.53
2023-01-21T15:19:34.307Z,7.45
2023-01-21T15:22:39.860Z,5.97
2023-01-21T15:25:25.447Z,5.35
2023-01-21T15:28:49.650Z,5.88
2023-01-21T15:31:18.939Z,8.18
2023-01-21T15:33:50.597Z,6.82
2023-01-21T15:36:28.096Z,8.73
2023-01-21T15:39:02.077Z,5.55
2023-01-21T15:41:50.858Z,6.45
2023-01-21T15:44:23.113Z,7.10
2023-01-21T15:47:18.942Z,6.13
2023-01-21T15:49:49.223Z,6.82
2023-01-21T15:52:28.580Z,8.05
2023-01-21T15:55:10.062Z,8.27
2023-01-21T15:57:36.749Z,7.43
2023-01-21T16:00:25.475Z,7.45
2023-01-21T16:02:57.985Z,6.82
2023-01-21T16:05:41.739Z,8.80
2023-01-21T16:08:23.411Z,6.95
2023-01-21T16:11:06.211Z,8.93
2023-01-21T16:13:42.058Z,7.28
2023-01-21T16:16:30.288Z,7.35
2023-01-21T16:19:03.259Z,7.57
2023-01-21T16:21:40.157Z,8.23
2023-01-21T16:24:17.733Z,8.60
2023-01-21T16:26:44.657Z,7.50
2023-01-21T16:29:13.297Z,6.80
2023-01-21T16:31:59.489Z,6.65
2023-01-21T16:34:42.793Z,6.53
2023-01-21T16:37:15.702Z,6.85
2023-01-21T16:39:42.922Z,6.10
2023-01-21T16:42:21.803Z,5.88
2023-01-21T16:44:53.145Z,6.70
2023-01-21T16:47:26.998Z,6.13
2023-01-21T16:49:53.873Z,0.22
2023-01-21T16:52:23.803Z,0.00
2023-01-21T16:54:52.859Z,0.47
2023-01-21T16:57:29.619Z,0.00
2023-01-21T17:00:05.967Z,0.00
2023-01-21T17:02:34.506Z,0.43
2023-01-21T17:05:06.533Z,0.10
2023-01-21T17:07:48.874Z,0.10
2023-01-21T17:10:16.083Z,0.32
2023-01-21T17:13:02.884Z,0.40
2023-01-21T17:15:39.170Z,0.10
2023-01-21T17:18:09.918Z,0.00
2023-01-21T17:23:26.971Z,2.05
2023-01-21T17:26:18.541Z,0.55
2023-01-21T17:28:58.570Z,0.10
2023-01-21T17:31:35.823Z,0.22
2023-01-21T17:34:24.669Z,0.15
2023-01-21T17:36:53.104Z,0.65
2023-01-21T17:39:48.188Z,0.38
2023-01-21T17:42:22.636Z,0.35
2023-01-21T17:44:55.044Z,0.30
2023-01-21T17:47:26.049Z,0.13
2023-01-21T17:50:22.145Z,0.10
2023-01-21T17:53:03.069Z,0.00
2023-01-21T17:57:56.811Z,0.10
2023-01-21T18:00:45.791Z,0.00
2023-01-21T18:03:13.250Z,0.00
2023-01-21T18:05:41.725Z,2.47
2023-01-21T18:08:18.219Z,0.15
2023-01-21T18:10:45.951Z,0.70
2023-01-21T18:13:14.255Z,0.55
2023-01-21T18:15:43.079Z,0.85
2023-01-21T18:18:17.006Z,0.20
2023-01-21T18:20:43.992Z,0.20
2023-01-21T18:23:11.398Z,0.00
2023-01-21T18:25:38.842Z,0.00
2023-01-21T18:28:12.327Z,0.80
2023-01-21T18:30:39.107Z,0.55
2023-01-21T18:33:05.828Z,0.40
2023-01-21T18:35:32.608Z,0.00
2023-01-21T18:37:59.294Z,0.10
2023-01-21T18:40:26.070Z,0.30
2023-01-21T18:42:55.523Z,1.45
2023-01-21T18:45:25.772Z,0.10
2023-01-21T18:47:52.726Z,0.00
2023-01-21T18:50:22.464Z,0.10
2023-01-21T18:52:49.548Z,0.00
2023-01-21T18:55:17.655Z,0.25
2023-01-21T18:57:48.931Z,0.10
2023-01-21T19:00:22.500Z,0.05
2023-01-21T19:02:50.534Z,0.30
2023-01-21T19:05:17.428Z,0.10
2023-01-21T19:07:44.364Z,0.00
2023-01-21T19:10:17.425Z,0.00
2023-01-21T19:12:44.687Z,0.00
2023-01-21T19:15:16.931Z,0.20
2023-01-21T19:17:44.101Z,0.00
2023-01-21T19:20:21.535Z,0.00
2023-01-21T19:22:49.145Z,1.13
2023-01-21T19:25:18.149Z,0.00
2023-01-21T19:27:56.046Z,0.10
2023-01-21T19:30:23.839Z,0.40
2023-01-21T19:32:52.427Z,0.43
2023-01-21T19:35:21.853Z,0.00
2023-01-21T19:37:50.483Z,0.20
2023-01-21T19:40:22.703Z,0.32
2023-01-21T19:42:49.815Z,0.00
2023-01-21T19:45:17.720Z,0.20
2023-01-21T19:47:46.422Z,0.38
2023-01-21T19:50:24.491Z,0.10
2023-01-21T19:52:52.686Z,0.98
2023-01-21T19:55:22.383Z,0.10
2023-01-21T19:57:58.490Z,0.35
2023-01-21T20:00:34.084Z,0.20
2023-01-21T20:03:01.478Z,0.05
2023-01-21T20:05:30.298Z,0.30
2023-01-21T20:07:57.141Z,0.57
2023-01-21T20:10:26.323Z,0.10
2023-01-21T20:12:53.610Z,0.20
2023-01-21T20:15:34.377Z,0.03
2023-01-21T20:20:29.983Z,1.48
2023-01-21T20:22:57.542Z,0.20
2023-01-21T20:25:26.565Z,0.00
2023-01-21T20:27:56.983Z,0.28
2023-01-21T20:30:27.171Z,0.98
2023-01-21T20:32:54.386Z,0.00
2023-01-21T20:35:22.529Z,0.38
2023-01-21T20:37:50.785Z,0.10
2023-01-21T20:40:20.886Z,0.22
2023-01-21T20:42:48.466Z,0.10
2023-01-21T20:45:17.125Z,0.00
2023-01-21T20:47:50.054Z,0.43
2023-01-21T20:50:21.473Z,0.63
2023-01-21T20:52:49.538Z,1.05
2023-01-21T20:55:20.725Z,0.00
2023-01-21T20:57:48.403Z,0.10
2023-01-21T21:00:19.973Z,0.05
2023-01-21T21:02:47.083Z,0.20
2023-01-21T21:05:15.680Z,0.00
2023-01-21T21:07:42.684Z,0.10
2023-01-21T21:10:22.404Z,0.00
2023-01-21T21:12:49.881Z,0.00
2023-01-21T21:15:17.685Z,0.10
2023-01-21T21:17:46.934Z,0.00
2023-01-21T21:20:26.534Z,0.00
2023-01-21T21:22:53.768Z,0.80
2023-01-21T21:25:23.325Z,0.80
2023-01-21T21:27:50.222Z,0.10
2023-01-21T21:30:20.123Z,1.00
2023-01-21T21:32:47.054Z,0.00
2023-01-21T21:35:24.224Z,0.00
2023-01-21T21:37:51.927Z,0.22
2023-01-21T21:40:20.190Z,0.10
2023-01-21T21:43:06.253Z,0.95
2023-01-21T21:45:33.120Z,0.10
2023-01-21T21:48:18.362Z,0.00
2023-01-21T21:50:45.286Z,0.00
2023-01-21T21:53:12.293Z,0.00
2023-01-21T21:55:39.063Z,0.00
2023-01-21T21:58:05.877Z,0.30
2023-01-21T22:00:32.630Z,0.47
2023-01-21T22:03:00.124Z,0.20
2023-01-21T22:05:27.099Z,0.00
2023-01-21T22:07:53.831Z,0.25
2023-01-21T22:10:20.723Z,0.15
2023-01-21T22:12:48.599Z,0.38
2023-01-21T22:15:15.929Z,0.20
2023-01-21T22:17:42.807Z,0.00
2023-01-21T22:20:10.428Z,0.10
2023-01-21T22:22:39.148Z,0.10
2023-01-21T22:25:07.530Z,0.10
2023-01-21T22:27:34.239Z,0.55
2023-01-21T22:30:01.619Z,0.00
2023-01-21T22:32:28.580Z,0.13
2023-01-21T22:34:55.322Z,0.10
2023-01-21T22:37:22.028Z,0.00
2023-01-21T22:39:48.761Z,0.00
2023-01-21T22:42:15.426Z,1.05
2023-01-21T22:44:42.186Z,0.68
2023-01-21T22:47:08.925Z,1.35
2023-01-21T22:49:35.755Z,0.05
2023-01-21T22:52:02.652Z,0.98
2023-01-21T22:54:29.396Z,0.10
2023-01-21T22:56:56.089Z,0.00
2023-01-21T22:59:22.985Z,0.10
2023-01-21T23:01:51.283Z,0.10
2023-01-21T23:04:18.199Z,0.98
2023-01-21T23:06:45.001Z,0.45
2023-01-21T23:09:15.915Z,0.00
2023-01-21T23:11:45.018Z,0.32
2023-01-21T23:14:12.891Z,0.20
2023-01-21T23:16:39.748Z,0.10
2023-01-21T23:19:06.553Z,0.30
2023-01-21T23:21:33.315Z,0.35
2023-01-21T23:24:00.109Z,0.10
2023-01-21T23:26:26.811Z,0.38
2023-01-21T23:28:56.091Z,0.10
2023-01-21T23:31:23.893Z,0.40
2023-01-21T23:33:52.817Z,0.00
2023-01-21T23:36:20.154Z,0.00
2023-01-21T23:38:47.066Z,2.13
2023-01-21T23:41:21.011Z,0.00
2023-01-21T23:43:47.881Z,0.85
2023-01-21T23:46:16.792Z,0.00
2023-01-21T23:48:43.868Z,0.40
2023-01-21T23:51:13.269Z,0.00
2023-01-21T23:53:40.154Z,0.15
2023-01-21T23:56:29.056Z,0.25
2023-01-21T23:58:55.804Z,0.00
